Time;durP1;ratioP1;P1;durP2;ratioP2;P2;SDS_P1;SDS_P2;PMS_P1;PMS_P2;Temp;Humidity;BMP_temperature;BMP_pressure;BME280_temperature;BME280_humidity;BME280_pressure;Samples;Min_cycle;Max_cycle;Signal;HPM_P1;HPM_P2
2024/02/15 00:02:23;;;;;;;0.30;0.20;;;;;;;12.19;100.00;100621.84;5051310;28;20467;-49
2024/02/15 00:04:49;;;;;;;0.30;0.20;;;;;;;12.30;100.00;100615.28;5051429;28;20459;-50
2024/02/15 00:07:16;;;;;;;0.30;0.20;;;;;;;12.16;100.00;100617.50;5051171;28;20936;-50
2024/02/15 00:09:42;;;;;;;0.30;0.20;;;;;;;12.14;100.00;100612.22;5051548;28;20437;-50
2024/02/15 00:12:09;;;;;;;0.30;0.20;;;;;;;12.13;100.00;100614.94;5051074;28;20526;-50
2024/02/15 00:14:38;;;;;;;0.30;0.20;;;;;;;11.98;100.00;100610.06;5051478;28;20450;-49
2024/02/15 00:17:05;;;;;;;0.30;0.20;;;;;;;12.00;100.00;100613.53;5051481;28;20656;-51
2024/02/15 00:19:31;;;;;;;0.30;0.20;;;;;;;11.95;100.00;100610.16;5051117;28;20451;-50
2024/02/15 00:21:58;;;;;;;0.30;0.20;;;;;;;11.95;100.00;100613.69;5052286;28;20498;-50
2024/02/15 00:24:25;;;;;;;0.30;0.20;;;;;;;11.64;100.00;100610.09;5055340;28;20446;-49
2024/02/15 00:26:53;;;;;;;3.60;3.03;;;;;;;11.62;100.00;100622.59;5054880;28;20524;-50
2024/02/15 00:29:20;;;;;;;0.30;0.20;;;;;;;11.61;100.00;100624.38;5054943;28;20461;-49
2024/02/15 00:31:46;;;;;;;0.30;0.20;;;;;;;11.54;100.00;100613.03;5054815;28;20498;-50
2024/02/15 00:34:13;;;;;;;0.30;0.20;;;;;;;11.67;100.00;100615.38;5054607;28;20533;-50
2024/02/15 00:36:46;;;;;;;0.30;0.20;;;;;;;11.69;100.00;100621.50;5054974;28;20545;-50
2024/02/15 00:39:13;;;;;;;0.30;0.20;;;;;;;11.72;100.00;100616.09;5054824;28;20467;-50
2024/02/15 00:41:41;;;;;;;0.30;0.20;;;;;;;11.60;100.00;100624.41;5054451;28;21009;-50
2024/02/15 00:44:10;;;;;;;0.33;0.27;;;;;;;11.62;100.00;100611.94;5054858;28;20530;-50
2024/02/15 00:46:41;;;;;;;0.30;0.20;;;;;;;11.55;100.00;100616.56;5054576;28;20489;-50
2024/02/15 00:49:07;;;;;;;0.30;0.20;;;;;;;11.52;100.00;100621.97;5054807;28;20461;-50
2024/02/15 00:51:35;;;;;;;0.30;0.20;;;;;;;11.62;100.00;100620.78;5054808;28;20529;-49
2024/02/15 00:54:03;;;;;;;0.30;0.20;;;;;;;11.50;100.00;100623.78;5054698;28;20461;-50
2024/02/15 00:56:31;;;;;;;0.30;0.20;;;;;;;11.47;100.00;100626.53;5054357;28;20454;-50
2024/02/15 00:59:01;;;;;;;0.30;0.20;;;;;;;11.37;100.00;100623.22;5054340;28;20874;-50
2024/02/15 01:01:27;;;;;;;0.30;0.20;;;;;;;11.45;100.00;100623.03;5052750;28;20498;-50
2024/02/15 01:03:54;;;;;;;0.30;0.20;;;;;;;11.47;100.00;100619.44;5054638;28;20478;-50
2024/02/15 01:06:22;;;;;;;0.30;0.20;;;;;;;11.50;100.00;100618.47;5054368;28;20457;-50
2024/02/15 01:08:48;;;;;;;0.30;0.20;;;;;;;11.28;100.00;100616.38;5054377;28;20450;-49
2024/02/15 01:11:15;;;;;;;0.30;0.20;;;;;;;11.35;100.00;100614.44;5053953;28;20966;-50
2024/02/15 01:13:42;;;;;;;0.30;0.20;;;;;;;11.31;100.00;100618.09;5053966;28;20949;-50
2024/02/15 01:16:08;;;;;;;0.30;0.20;;;;;;;11.23;100.00;100612.09;5054410;28;20558;-50
2024/02/15 01:18:35;;;;;;;0.30;0.20;;;;;;;11.31;100.00;100612.78;5054165;28;20991;-50
2024/02/15 01:21:02;;;;;;;0.30;0.20;;;;;;;11.32;100.00;100613.63;5053959;28;21000;-50
2024/02/15 01:23:29;;;;;;;0.30;0.20;;;;;;;11.31;100.00;100614.56;5054059;28;20444;-50
2024/02/15 01:25:55;;;;;;;0.30;0.20;;;;;;;11.25;100.00;100613.81;5053798;28;20679;-50
2024/02/15 01:28:22;;;;;;;0.30;0.20;;;;;;;11.10;100.00;100623.94;5053641;28;20497;-50
2024/02/15 01:30:49;;;;;;;0.33;0.20;;;;;;;11.27;100.00;100619.09;5053779;28;20477;-50
2024/02/15 01:33:15;;;;;;;0.30;0.20;;;;;;;11.23;100.00;100617.41;5053606;28;21037;-50
2024/02/15 01:35:42;;;;;;;0.30;0.20;;;;;;;11.28;100.00;100615.53;5053887;28;20461;-50
2024/02/15 01:38:08;;;;;;;0.30;0.20;;;;;;;11.40;100.00;100612.53;5053727;28;20432;-50
2024/02/15 01:40:35;;;;;;;0.30;0.20;;;;;;;11.44;100.00;100606.22;5053631;28;20468;-50
2024/02/15 01:43:01;;;;;;;0.30;0.20;;;;;;;11.36;100.00;100607.31;5053345;28;20861;-50
2024/02/15 01:45:28;;;;;;;0.30;0.20;;;;;;;11.23;100.00;100604.09;5053828;28;20534;-50
2024/02/15 01:47:55;;;;;;;0.30;0.20;;;;;;;11.03;100.00;100606.41;5053886;28;20855;-50
2024/02/15 01:50:24;;;;;;;0.30;0.20;;;;;;;11.04;100.00;100610.81;5053487;28;20451;-50
2024/02/15 01:52:54;;;;;;;0.30;0.20;;;;;;;11.03;100.00;100617.06;5053234;28;20861;-49
2024/02/15 01:55:21;;;;;;;0.30;0.20;;;;;;;10.95;100.00;100622.56;5053361;28;20453;-50
2024/02/15 01:57:48;;;;;;;0.63;0.63;;;;;;;10.93;100.00;100614.63;5053413;28;20508;-50
2024/02/15 02:00:18;;;;;;;0.30;0.20;;;;;;;10.93;100.00;100611.97;5053214;28;20984;-50
2024/02/15 02:02:46;;;;;;;0.30;0.20;;;;;;;11.13;100.00;100613.25;5053110;28;20538;-50
2024/02/15 02:05:12;;;;;;;0.30;0.20;;;;;;;10.95;100.00;100612.78;5053353;28;20505;-50
2024/02/15 02:07:39;;;;;;;0.50;0.50;;;;;;;11.07;100.00;100608.06;5053140;28;20457;-50
2024/02/15 02:10:07;;;;;;;0.30;0.20;;;;;;;10.83;100.00;100605.13;5053193;28;20451;-50
2024/02/15 02:12:34;;;;;;;0.30;0.20;;;;;;;10.80;100.00;100618.47;5052611;28;20557;-50
2024/02/15 02:15:00;;;;;;;0.30;0.20;;;;;;;10.67;100.00;100619.69;5053420;28;20537;-50
2024/02/15 02:17:27;;;;;;;0.30;0.20;;;;;;;10.66;100.00;100602.88;5053033;28;20466;-50
2024/02/15 02:19:54;;;;;;;0.30;0.20;;;;;;;10.42;100.00;100603.47;5053156;28;20924;-49
2024/02/15 02:22:21;;;;;;;0.30;0.20;;;;;;;10.46;100.00;100605.13;5052908;28;21013;-49
2024/02/15 02:24:58;;;;;;;0.30;0.20;;;;;;;10.54;100.00;100597.84;5053127;28;20457;-49
2024/02/15 02:27:27;;;;;;;0.30;0.20;;;;;;;10.60;100.00;100596.84;5044974;28;20505;-49
2024/02/15 02:29:54;;;;;;;0.30;0.20;;;;;;;10.53;100.00;100598.75;5052673;28;20970;-49
2024/02/15 02:32:21;;;;;;;0.30;0.20;;;;;;;10.45;100.00;100600.72;5052588;28;20582;-49
2024/02/15 02:34:48;;;;;;;0.30;0.20;;;;;;;10.39;100.00;100596.41;5052530;28;20453;-49
2024/02/15 02:37:14;;;;;;;0.30;0.20;;;;;;;10.34;100.00;100590.34;5052483;28;20429;-49
2024/02/15 02:39:42;;;;;;;0.30;0.20;;;;;;;10.34;100.00;100592.13;5052373;28;20520;-50
2024/02/15 02:42:09;;;;;;;0.30;0.20;;;;;;;10.31;100.00;100592.19;5051230;28;20576;-49
2024/02/15 02:44:36;;;;;;;0.30;0.20;;;;;;;10.22;100.00;100587.09;5052117;28;20508;-49
2024/02/15 02:47:02;;;;;;;0.30;0.20;;;;;;;10.20;100.00;100589.75;5052688;28;20516;-50
2024/02/15 02:49:29;;;;;;;0.30;0.20;;;;;;;10.18;100.00;100583.59;5052147;28;20522;-49
2024/02/15 02:51:56;;;;;;;0.30;0.20;;;;;;;10.26;100.00;100583.44;5052653;28;20929;-49
2024/02/15 02:54:22;;;;;;;0.30;0.20;;;;;;;10.06;100.00;100594.47;5052066;28;20447;-49
2024/02/15 02:56:49;;;;;;;0.30;0.20;;;;;;;10.09;100.00;100599.72;5052346;28;20565;-49
2024/02/15 02:59:16;;;;;;;0.30;0.20;;;;;;;10.04;100.00;100594.53;5052215;28;20450;-49
2024/02/15 03:01:42;;;;;;;0.30;0.20;;;;;;;10.05;100.00;100596.25;5052100;28;20466;-49
2024/02/15 03:04:12;;;;;;;0.30;0.20;;;;;;;10.09;100.00;100591.75;5051975;28;20545;-49
2024/02/15 03:06:42;;;;;;;0.30;0.20;;;;;;;10.09;100.00;100589.97;5052106;28;20455;-49
2024/02/15 03:09:09;;;;;;;0.40;0.20;;;;;;;10.17;100.00;100588.94;5052162;28;20475;-49
2024/02/15 03:11:36;;;;;;;0.30;0.20;;;;;;;10.19;100.00;100589.78;5051815;28;20883;-49
2024/02/15 03:14:04;;;;;;;0.30;0.20;;;;;;;10.27;100.00;100587.84;5051866;28;20824;-49
2024/02/15 03:16:38;;;;;;;0.30;0.20;;;;;;;10.26;100.00;100589.63;5051813;28;20815;-49
2024/02/15 03:19:04;;;;;;;0.30;0.20;;;;;;;10.26;100.00;100594.94;5052143;28;20474;-49
2024/02/15 03:21:31;;;;;;;0.30;0.20;;;;;;;10.17;100.00;100597.78;5050577;28;20565;-49
2024/02/15 03:23:57;;;;;;;0.30;0.20;;;;;;;10.21;100.00;100594.19;5051717;28;20534;-49
2024/02/15 03:26:38;;;;;;;0.30;0.20;;;;;;;10.35;100.00;100585.91;5051720;28;20458;-48
2024/02/15 03:29:04;;;;;;;0.30;0.20;;;;;;;10.39;100.00;100595.53;5039027;28;20464;-49
2024/02/15 03:31:32;;;;;;;0.30;0.20;;;;;;;10.46;100.00;100586.53;5051696;28;20504;-49
2024/02/15 03:33:59;;;;;;;0.30;0.20;;;;;;;10.37;100.00;100587.59;5052024;28;20447;-49
2024/02/15 03:36:25;;;;;;;0.30;0.20;;;;;;;10.35;100.00;100584.09;5051612;28;20474;-49
2024/02/15 03:38:53;;;;;;;0.30;0.20;;;;;;;10.49;100.00;100583.78;5051762;28;20446;-49
2024/02/15 03:41:20;;;;;;;0.30;0.20;;;;;;;10.33;100.00;100569.13;5051632;28;20525;-49
2024/02/15 03:43:47;;;;;;;0.30;0.20;;;;;;;10.35;100.00;100580.59;5051337;28;20488;-49
2024/02/15 03:46:14;;;;;;;0.30;0.20;;;;;;;10.37;100.00;100578.75;5051468;28;20925;-49
2024/02/15 03:48:44;;;;;;;0.30;0.20;;;;;;;10.42;100.00;100578.69;5051691;28;20510;-49
2024/02/15 03:51:10;;;;;;;4.03;2.87;;;;;;;10.45;100.00;100574.16;5051435;28;20478;-49
2024/02/15 03:53:37;;;;;;;0.30;0.20;;;;;;;10.44;100.00;100580.38;5051689;28;20523;-49
2024/02/15 03:56:04;;;;;;;0.30;0.20;;;;;;;10.42;100.00;100586.66;5051339;28;20927;-49
2024/02/15 03:58:32;;;;;;;0.30;0.20;;;;;;;10.43;100.00;100583.06;5055339;28;20450;-49
2024/02/15 04:00:59;;;;;;;0.30;0.20;;;;;;;10.42;100.00;100584.00;5055785;28;20470;-49
2024/02/15 04:03:26;;;;;;;0.30;0.20;;;;;;;10.39;100.00;100585.78;5055681;28;20453;-50
2024/02/15 04:05:52;;;;;;;0.30;0.20;;;;;;;10.44;100.00;100582.16;5055564;28;20455;-49
2024/02/15 04:08:19;;;;;;;0.30;0.20;;;;;;;10.42;100.00;100587.53;5055475;28;20924;-49
2024/02/15 04:10:46;;;;;;;0.30;0.20;;;;;;;10.44;100.00;100584.81;5055768;28;20590;-49
2024/02/15 04:13:15;;;;;;;0.30;0.20;;;;;;;10.34;100.00;100581.50;5055460;28;20534;-49
2024/02/15 04:15:43;;;;;;;0.30;0.20;;;;;;;10.41;100.00;100587.53;5055398;28;20457;-49
2024/02/15 04:18:10;;;;;;;0.30;0.20;;;;;;;10.41;100.00;100587.53;5055466;28;20453;-49
2024/02/15 04:20:37;;;;;;;0.30;0.20;;;;;;;10.37;100.00;100584.06;5055236;28;20474;-49
2024/02/15 04:23:04;;;;;;;0.30;0.20;;;;;;;10.44;100.00;100593.66;5055291;28;21072;-49
2024/02/15 04:25:31;;;;;;;0.30;0.20;;;;;;;10.40;100.00;100589.31;5055000;28;20451;-49
2024/02/15 04:27:59;;;;;;;0.30;0.20;;;;;;;10.36;100.00;100583.19;5054786;28;21027;-49
2024/02/15 04:30:25;;;;;;;0.30;0.20;;;;;;;10.44;100.00;100584.81;5055073;28;20501;-48
2024/02/15 04:32:52;;;;;;;0.30;0.20;;;;;;;10.52;100.00;100585.50;5055073;28;20565;-49
2024/02/15 04:35:19;;;;;;;0.30;0.20;;;;;;;10.56;100.00;100576.56;5054861;28;20455;-49
2024/02/15 04:37:46;;;;;;;0.30;0.20;;;;;;;10.65;100.00;100576.31;5054888;28;20538;-48
2024/02/15 04:40:13;;;;;;;0.30;0.20;;;;;;;10.73;100.00;100586.78;5054727;28;20479;-50
2024/02/15 04:42:41;;;;;;;0.30;0.20;;;;;;;10.75;100.00;100583.16;5054681;28;20474;-49
2024/02/15 04:45:09;;;;;;;0.30;0.20;;;;;;;10.68;100.00;100578.91;5054802;28;20453;-49
2024/02/15 04:47:37;;;;;;;0.30;0.20;;;;;;;10.74;100.00;100572.56;5054624;28;20943;-49
2024/02/15 04:50:05;;;;;;;0.30;0.20;;;;;;;10.85;100.00;100567.88;5054630;28;20446;-49
2024/02/15 04:52:33;;;;;;;0.37;0.30;;;;;;;10.89;100.00;100562.41;5054174;28;20841;-49
2024/02/15 04:54:59;;;;;;;0.30;0.20;;;;;;;10.94;100.00;100562.28;5054831;28;20895;-48
2024/02/15 04:57:28;;;;;;;0.40;0.30;;;;;;;10.88;100.00;100563.34;5053573;28;20565;-49
2024/02/15 04:59:54;;;;;;;0.30;0.20;;;;;;;10.94;100.00;100567.63;5054619;28;20504;-49
2024/02/15 05:02:24;;;;;;;0.77;0.77;;;;;;;10.93;100.00;100569.41;5054311;28;20471;-49
2024/02/15 05:04:56;;;;;;;0.30;0.20;;;;;;;11.03;100.00;100577.16;5054308;28;20866;-49
2024/02/15 05:07:23;;;;;;;0.30;0.20;;;;;;;11.06;100.00;100564.63;5054097;28;20421;-49
2024/02/15 05:09:52;;;;;;;0.30;0.20;;;;;;;11.06;100.00;100571.75;5054548;28;20534;-49
2024/02/15 05:12:25;;;;;;;0.30;0.20;;;;;;;11.06;100.00;100558.44;5053877;28;20460;-49
2024/02/15 05:14:53;;;;;;;0.30;0.20;;;;;;;11.21;100.00;100563.34;5054366;28;20533;-49
2024/02/15 05:17:21;;;;;;;0.30;0.20;;;;;;;11.25;100.00;100559.72;5054113;28;20454;-49
2024/02/15 05:19:49;;;;;;;0.30;0.20;;;;;;;11.25;100.00;100551.75;5054295;28;20512;-49
2024/02/15 05:22:16;;;;;;;0.30;0.20;;;;;;;11.28;100.00;100559.63;5054013;28;20467;-49
2024/02/15 05:24:42;;;;;;;0.30;0.20;;;;;;;11.10;100.00;100560.09;5054220;28;20922;-49
2024/02/15 05:27:09;;;;;;;0.30;0.20;;;;;;;11.20;100.00;100562.47;5053678;28;20534;-48
2024/02/15 05:29:36;;;;;;;0.30;0.20;;;;;;;11.23;100.00;100564.19;5054071;28;20878;-48
2024/02/15 05:32:02;;;;;;;0.30;0.20;;;;;;;11.21;100.00;100563.34;5053503;28;20493;-49
2024/02/15 05:34:29;;;;;;;0.30;0.20;;;;;;;11.10;100.00;100562.75;5054065;28;20489;-49
2024/02/15 05:36:56;;;;;;;0.30;0.20;;;;;;;11.22;100.00;100565.97;5053627;28;20932;-48
2024/02/15 05:39:23;;;;;;;0.30;0.20;;;;;;;11.27;100.00;100573.84;5054169;28;20505;-49
2024/02/15 05:41:49;;;;;;;0.30;0.20;;;;;;;11.24;100.00;100572.16;5053416;28;21001;-49
2024/02/15 05:44:20;;;;;;;0.30;0.20;;;;;;;11.27;100.00;100569.41;5053719;28;21026;-49
2024/02/15 05:46:47;;;;;;;0.30;0.20;;;;;;;11.35;100.00;100565.66;5053677;28;20475;-49
2024/02/15 05:49:17;;;;;;;0.30;0.20;;;;;;;11.42;100.00;100567.25;5053782;28;20452;-48
2024/02/15 05:51:44;;;;;;;0.30;0.20;;;;;;;11.38;100.00;100563.81;5040710;28;20574;-49
2024/02/15 05:54:11;;;;;;;0.30;0.20;;;;;;;11.39;100.00;100565.53;5053310;28;21093;-49
2024/02/15 05:56:38;;;;;;;0.30;0.20;;;;;;;11.35;100.00;100563.84;5053209;28;20447;-49
2024/02/15 05:59:10;;;;;;;0.30;0.20;;;;;;;11.20;100.00;100561.63;5053771;28;20469;-49
2024/02/15 06:01:38;;;;;;;0.30;0.20;;;;;;;11.17;100.00;100559.03;5053314;28;20903;-49
2024/02/15 06:04:08;;;;;;;0.30;0.20;;;;;;;11.20;100.00;100561.63;5052101;28;20471;-49
2024/02/15 06:06:35;;;;;;;0.30;0.20;;;;;;;11.14;100.00;100559.13;5053332;28;20443;-49
2024/02/15 06:09:02;;;;;;;0.30;0.20;;;;;;;11.11;100.00;100551.25;5053242;28;20528;-49
2024/02/15 06:11:29;;;;;;;0.30;0.20;;;;;;;11.19;100.00;100538.59;5052908;28;20471;-49
2024/02/15 06:13:55;;;;;;;0.30;0.20;;;;;;;11.14;100.00;100546.69;5052813;28;20486;-49
2024/02/15 06:16:22;;;;;;;0.30;0.20;;;;;;;11.19;100.00;100534.13;5053083;28;20430;-49
2024/02/15 06:18:48;;;;;;;0.30;0.20;;;;;;;11.14;100.00;100529.88;5052752;28;20537;-49
2024/02/15 06:21:16;;;;;;;0.30;0.20;;;;;;;11.02;100.00;100532.84;5052442;28;20441;-49
2024/02/15 06:23:42;;;;;;;0.30;0.20;;;;;;;11.02;100.00;100538.16;5052992;28;20466;-49
2024/02/15 06:26:09;;;;;;;0.30;0.20;;;;;;;11.04;100.00;100525.69;5052935;28;20424;-50
2024/02/15 06:39:40;;;;;;;0.30;0.20;;;;;;;10.59;100.00;100534.81;5052721;28;20446;-49
2024/02/15 06:42:09;;;;;;;0.30;0.20;;;;;;;10.68;100.00;100534.56;5052726;28;20497;-49
2024/02/15 06:44:35;;;;;;;0.30;0.20;;;;;;;10.66;100.00;100539.06;5052471;28;20820;-50
2024/02/15 06:47:02;;;;;;;0.30;0.20;;;;;;;10.77;100.00;100541.47;5052303;28;20451;-50
2024/02/15 06:49:28;;;;;;;13.63;11.40;;;;;;;10.69;100.00;100543.47;5052777;28;20842;-49
2024/02/15 06:51:56;;;;;;;0.30;0.20;;;;;;;10.58;100.00;100542.84;5052511;28;20506;-49
2024/02/15 06:54:23;;;;;;;0.30;0.20;;;;;;;10.48;100.00;100549.28;5052605;28;20482;-50
2024/02/15 06:56:52;;;;;;;0.30;0.20;;;;;;;10.39;100.00;100547.69;5052148;28;20534;-49
2024/02/15 06:59:19;;;;;;;0.30;0.20;;;;;;;10.34;100.00;100544.28;5052194;28;20887;-49
2024/02/15 07:01:45;;;;;;;0.30;0.20;;;;;;;10.35;100.00;100552.22;5052048;28;20463;-50
2024/02/15 07:04:12;;;;;;;0.30;0.20;;;;;;;10.38;100.00;100559.25;5052246;28;20471;-51
2024/02/15 07:06:39;;;;;;;0.30;0.20;;;;;;;10.34;100.00;100553.13;5052135;28;20885;-51
2024/02/15 07:09:07;;;;;;;0.30;0.20;;;;;;;10.30;100.00;100559.44;5052193;28;20526;-50
2024/02/15 07:11:36;;;;;;;0.30;0.20;;;;;;;10.34;100.00;100554.91;5051885;28;20478;-51
2024/02/15 07:14:07;;;;;;;0.30;0.20;;;;;;;10.37;100.00;100558.38;5052286;28;20489;-51
2024/02/15 07:16:33;;;;;;;0.30;0.20;;;;;;;10.43;100.00;100562.69;5052265;28;20446;-50
2024/02/15 07:19:01;;;;;;;0.30;0.20;;;;;;;10.33;100.00;100569.13;5051796;28;20943;-51
2024/02/15 07:21:27;;;;;;;0.30;0.20;;;;;;;10.34;100.00;100562.88;5051912;28;20477;-50
2024/02/15 07:23:55;;;;;;;0.30;0.20;;;;;;;10.39;100.00;100561.88;5051888;28;20443;-51
2024/02/15 07:26:25;;;;;;;0.30;0.20;;;;;;;10.46;100.00;100556.41;5050231;28;20451;-50
2024/02/15 07:28:53;;;;;;;0.30;0.20;;;;;;;10.44;100.00;100571.53;5051418;28;20580;-50
2024/02/15 07:31:21;;;;;;;0.30;0.20;;;;;;;10.51;100.00;100576.66;5051665;28;20466;-50
2024/02/15 07:33:48;;;;;;;0.30;0.20;;;;;;;10.54;100.00;100570.38;5051610;28;20545;-50
2024/02/15 07:36:21;;;;;;;0.33;0.20;;;;;;;10.65;100.00;100568.34;5051505;28;20486;-50
2024/02/15 07:38:48;;;;;;;0.30;0.20;;;;;;;10.59;100.00;100574.69;5039008;28;20451;-50
2024/02/15 07:41:18;;;;;;;0.30;0.20;;;;;;;10.61;100.00;100575.53;5051341;28;20477;-50
2024/02/15 07:43:44;;;;;;;0.30;0.20;;;;;;;10.66;100.00;100578.06;5051820;28;20530;-50
2024/02/15 07:46:16;;;;;;;0.30;0.20;;;;;;;10.71;100.00;100576.19;5051650;28;20454;-50
2024/02/15 07:48:45;;;;;;;0.30;0.20;;;;;;;10.76;100.00;100576.94;5051437;28;20982;-50
2024/02/15 07:51:14;;;;;;;0.30;0.20;;;;;;;10.72;100.00;100583.25;5051237;28;20475;-50
2024/02/15 07:53:42;;;;;;;0.30;0.20;;;;;;;10.70;100.00;100589.53;5051370;28;20573;-50
2024/02/15 07:56:10;;;;;;;0.30;0.20;;;;;;;10.79;100.00;100592.81;5051655;28;20461;-50
2024/02/15 07:58:46;;;;;;;1.07;1.07;;;;;;;10.75;100.00;100593.81;5051302;28;21020;-50
2024/02/15 08:01:22;;;;;;;0.30;0.20;;;;;;;10.77;100.00;100591.09;5051482;28;20544;-51
2024/02/15 08:03:52;;;;;;;0.30;0.20;;;;;;;10.64;100.00;100593.19;5051492;28;20573;-50
2024/02/15 08:06:19;;;;;;;0.30;0.20;;;;;;;10.77;100.00;100589.31;5051283;28;21004;-50
2024/02/15 08:08:47;;;;;;;0.30;0.20;;;;;;;10.76;100.00;100590.22;5051268;28;20863;-50
2024/02/15 08:11:15;;;;;;;0.30;0.30;;;;;;;10.92;100.00;100582.75;5038297;28;20975;-50
2024/02/15 08:13:50;;;;;;;0.97;0.97;;;;;;;10.87;100.00;100592.63;5051189;28;20522;-50
2024/02/15 08:16:19;;;;;;;0.30;0.20;;;;;;;10.97;100.00;100580.84;5051359;28;20453;-50
2024/02/15 08:18:45;;;;;;;0.33;0.20;;;;;;;11.01;100.00;100585.19;5050993;28;20534;-51
2024/02/15 08:21:14;;;;;;;0.30;0.20;;;;;;;11.10;100.00;100584.03;5051054;28;20473;-50
2024/02/15 08:23:40;;;;;;;0.30;0.20;;;;;;;11.15;100.00;100583.03;5051361;28;20442;-49
2024/02/15 08:26:07;;;;;;;0.30;0.20;;;;;;;11.22;100.00;100586.38;5051052;28;20447;-50
2024/02/15 08:28:34;;;;;;;0.30;0.20;;;;;;;11.27;100.00;100579.19;5050971;28;20478;-50
2024/02/15 08:31:00;;;;;;;0.30;0.20;;;;;;;11.30;100.00;100580.88;5051114;28;20532;-50
2024/02/15 08:33:28;;;;;;;0.30;0.20;;;;;;;11.32;100.00;100576.38;5050963;28;20513;-50
2024/02/15 08:35:55;;;;;;;0.33;0.20;;;;;;;11.35;100.00;100581.63;5051308;28;20492;-50
2024/02/15 08:38:22;;;;;;;0.30;0.20;;;;;;;11.55;100.00;100572.19;5051013;28;20454;-50
2024/02/15 08:40:49;;;;;;;0.30;0.20;;;;;;;11.65;100.00;100579.88;5050835;28;20448;-51
2024/02/15 08:43:16;;;;;;;0.70;0.70;;;;;;;11.68;100.00;100583.38;5052300;28;20433;-50
2024/02/15 08:45:43;;;;;;;0.30;0.20;;;;;;;11.71;100.00;100582.41;5054856;28;20537;-50
2024/02/15 08:48:10;;;;;;;0.30;0.20;;;;;;;11.79;100.00;100570.66;5054788;28;20454;-49
2024/02/15 08:50:38;;;;;;;0.40;0.30;;;;;;;11.84;100.00;100574.03;5054799;28;20502;-49
2024/02/15 08:53:06;;;;;;;0.30;0.20;;;;;;;11.80;100.00;100571.53;5054969;28;20447;-50
2024/02/15 08:55:35;;;;;;;2.93;2.10;;;;;;;11.75;100.00;100571.59;5054748;28;20428;-50
2024/02/15 08:58:02;;;;;;;0.30;0.20;;;;;;;11.81;100.00;100566.16;5054438;28;20881;-50
2024/02/15 09:00:29;;;;;;;0.30;0.20;;;;;;;11.86;100.00;100566.00;5054352;28;20520;-50
2024/02/15 09:02:57;;;;;;;0.30;0.20;;;;;;;11.93;100.00;100572.91;5054451;28;20449;-50
2024/02/15 09:05:24;;;;;;;0.30;0.20;;;;;;;11.92;100.00;100568.47;5054741;28;20454;-50
2024/02/15 09:07:51;;;;;;;0.30;0.20;;;;;;;12.08;100.00;100559.13;5054476;28;20891;-50
2024/02/15 09:10:18;;;;;;;0.30;0.20;;;;;;;12.08;100.00;100564.47;5054219;28;20534;-50
2024/02/15 09:12:47;;;;;;;0.30;0.20;;;;;;;12.14;100.00;100568.72;5054094;28;20449;-50
2024/02/15 09:15:14;;;;;;;0.30;0.20;;;;;;;12.16;100.00;100567.75;5054334;28;20522;-50
2024/02/15 09:17:42;;;;;;;0.30;0.20;;;;;;;12.22;100.00;100563.16;5054086;28;21011;-50
2024/02/15 09:20:14;;;;;;;0.30;0.20;;;;;;;12.35;100.00;100561.84;5053983;28;20936;-50
2024/02/15 09:22:49;;;;;;;0.30;0.20;;;;;;;12.34;100.00;100560.13;5054522;28;20467;-50
2024/02/15 09:25:19;;;;;;;0.30;0.20;;;;;;;12.37;100.00;100558.22;5054233;28;20442;-50
2024/02/15 09:27:46;;;;;;;0.30;0.20;;;;;;;12.47;100.00;100550.78;5054131;28;20542;-50
2024/02/15 09:30:13;;;;;;;0.40;0.40;;;;;;;12.49;100.00;100556.09;5053945;28;20433;-50
2024/02/15 09:32:40;;;;;;;0.30;0.20;;;;;;;12.60;100.00;100554.78;5053945;28;20478;-50
2024/02/15 09:35:08;;;;;;;0.30;0.20;;;;;;;12.64;100.00;100548.47;5053726;28;20491;-50
2024/02/15 09:37:37;;;;;;;0.30;0.20;;;;;;;12.74;100.00;100551.66;5053752;28;20421;-50
2024/02/15 09:40:07;;;;;;;0.30;0.20;;;;;;;12.94;100.00;100548.34;5053740;28;20537;-50
2024/02/15 09:42:34;;;;;;;0.30;0.20;;;;;;;13.05;100.00;100548.84;5053675;28;20489;-50
2024/02/15 09:45:02;;;;;;;0.30;0.20;;;;;;;13.25;100.00;100546.38;5053922;28;20574;-50
2024/02/15 09:47:36;;;;;;;0.30;0.20;;;;;;;13.33;100.00;100538.13;5053855;28;20454;-49
2024/02/15 09:50:06;;;;;;;0.30;0.20;;;;;;;13.31;100.00;100532.84;5053592;28;20447;-49
2024/02/15 09:52:35;;;;;;;0.30;0.20;;;;;;;13.15;100.00;100539.59;5053565;28;20474;-50
2024/02/15 09:55:03;;;;;;;0.30;0.20;;;;;;;13.43;100.00;100528.84;5052368;28;20544;-50
2024/02/15 09:57:32;;;;;;;0.30;0.20;;;;;;;13.50;100.00;100530.34;5053346;28;20542;-50
2024/02/15 09:59:59;;;;;;;0.30;0.20;;;;;;;13.52;100.00;100527.63;5053459;28;20485;-50
2024/02/15 10:02:26;;;;;;;0.30;0.20;;;;;;;13.34;100.00;100518.50;5053260;28;20864;-50
2024/02/15 10:04:56;;;;;;;0.30;0.20;;;;;;;13.61;100.00;100521.94;5053220;28;20955;-50
2024/02/15 10:07:26;;;;;;;0.30;0.20;;;;;;;13.69;100.00;100535.00;5052025;28;20457;-50
2024/02/15 10:09:54;;;;;;;0.30;0.20;;;;;;;13.90;100.00;100527.06;5053318;28;20872;-50
2024/02/15 10:12:37;;;;;;;0.30;0.20;;;;;;;13.74;100.00;100517.03;5053115;28;20462;-50
2024/02/15 10:15:07;;;;;;;0.30;0.20;;;;;;;13.83;99.54;100522.88;5052972;28;20522;-50
2024/02/15 10:17:35;;;;;;;0.30;0.20;;;;;;;13.95;99.79;100518.84;5052927;28;20960;-50
2024/02/15 10:20:06;;;;;;;0.30;0.20;;;;;;;13.93;100.00;100518.91;5053240;28;20891;-50
2024/02/15 10:22:32;;;;;;;0.30;0.20;;;;;;;13.71;100.00;100515.34;5039904;28;20478;-50
2024/02/15 10:25:14;;;;;;;0.30;0.20;;;;;;;14.13;99.51;100517.28;5052943;28;20443;-50
2024/02/15 10:27:46;;;;;;;0.30;0.20;;;;;;;14.50;98.06;100509.53;5052453;28;20443;-50
2024/02/15 10:30:15;;;;;;;0.30;0.20;;;;;;;14.53;97.55;100511.22;5052845;28;20451;-50
2024/02/15 10:32:44;;;;;;;0.30;0.20;;;;;;;14.18;98.65;100501.91;5053219;28;20425;-50
2024/02/15 10:35:15;;;;;;;0.60;0.60;;;;;;;14.39;97.24;100500.16;5052731;28;20501;-50
2024/02/15 10:37:42;;;;;;;0.30;0.20;;;;;;;14.50;97.47;100492.59;5052782;28;20447;-50
2024/02/15 10:40:09;;;;;;;0.30;0.20;;;;;;;14.64;97.08;100497.38;5052571;28;20429;-50
2024/02/15 10:42:42;;;;;;;0.30;0.20;;;;;;;14.61;98.17;100494.84;5052383;28;20527;-51
2024/02/15 10:45:10;;;;;;;0.30;0.20;;;;;;;14.54;97.97;100494.25;5052489;28;20463;-50
2024/02/15 10:47:39;;;;;;;0.30;0.20;;;;;;;14.85;96.85;100492.94;5052749;28;20451;-51
2024/02/15 10:50:06;;;;;;;0.47;0.37;;;;;;;14.97;95.81;100484.38;5052247;28;20429;-50
2024/02/15 10:52:41;;;;;;;0.30;0.20;;;;;;;14.73;95.18;100483.63;5052360;28;20967;-51
2024/02/15 10:55:13;;;;;;;0.30;0.20;;;;;;;14.46;95.16;100483.84;5039422;28;21010;-50
2024/02/15 10:57:46;;;;;;;0.30;0.20;;;;;;;14.81;94.52;100484.19;5052257;28;20426;-51
2024/02/15 11:00:20;;;;;;;0.30;0.20;;;;;;;14.94;93.40;100480.03;5052093;28;20941;-50
2024/02/15 11:03:01;;;;;;;0.30;0.20;;;;;;;14.97;91.99;100474.56;5052578;28;20459;-50
2024/02/15 11:05:37;;;;;;;0.30;0.20;;;;;;;14.94;92.80;100466.66;5051698;28;20417;-51
2024/02/15 11:08:06;;;;;;;0.30;0.20;;;;;;;15.09;93.02;100471.34;5052397;28;20421;-51
2024/02/15 11:10:35;;;;;;;0.30;0.20;;;;;;;15.19;91.88;100463.75;5052061;28;20432;-51
2024/02/15 11:13:03;;;;;;;0.30;0.20;;;;;;;15.08;91.38;100461.56;5051878;28;20928;-50
2024/02/15 11:15:35;;;;;;;0.30;0.20;;;;;;;15.03;92.06;100463.56;5052177;28;20492;-51
2024/02/15 11:18:03;;;;;;;0.30;0.20;;;;;;;14.96;94.08;100462.09;5051902;28;20461;-50
2024/02/15 11:20:33;;;;;;;0.30;0.20;;;;;;;14.99;93.54;100453.06;5052036;28;20519;-51
2024/02/15 11:23:01;;;;;;;0.30;0.20;;;;;;;14.97;92.98;100453.13;5052287;28;20457;-50
2024/02/15 11:25:34;;;;;;;0.30;0.20;;;;;;;14.96;92.84;100453.22;5052122;28;20447;-50
2024/02/15 11:28:23;;;;;;;0.30;0.20;;;;;;;15.03;93.66;100447.50;5051476;28;20477;-50
2024/02/15 11:30:49;;;;;;;0.30;0.20;;;;;;;14.99;93.90;100432.50;5039975;28;20445;-50
2024/02/15 11:33:36;;;;;;;0.30;0.20;;;;;;;15.03;95.07;100434.09;5051532;28;20430;-50